KELD/ELD METAR and TAF weather

Enter ICAO airport designator
Station Type Date Time Source
KELD METAR 2020/03/31 12:53 UTC NOAA

KELD 311253Z AUTO 32008KT 10SM OVC007 11/11 A2991 RMK AO2 RAE03 CIG 004V009 SLP129 P0000 T01110111


Station Type Date Time Source
KELD Decoded METAR 2020/03/31 12:53 UTC NOAA

SOUTH ARKANSAS REGIONAL, AR, United States (KELD) 33-13N 092-49W 81M
Mar 31, 2020 - 08:53 AM EDT / 2020.03.31 1253 UTC
Wind: from the NW (320 degrees) at 9 MPH (8 KT):0
Visibility: 10 mile(s):0
Sky conditions: overcast
Precipitation last hour: A trace
Temperature: 52.0 F (11.1 C)
Dew Point: 52.0 F (11.1 C)
Relative Humidity: 100%
Pressure (altimeter): 29.91 in. Hg (1012 hPa)
ob: KELD 311253Z AUTO 32008KT 10SM OVC007 11/11 A2991 RMK AO2 RAE03 CIG 004V009 SLP129 P0000 T01110111
cycle: 13

Station Type Date Time Source
KELD TAF 2020/03/31 12:27 UTC NOAA

TAF KELD 311123Z 3112/0112 33008KT 6SM BR BKN006 OVC015
FM311700 35011KT P6SM SCT010 OVC015
FM311900 36010G18KT P6SM SCT014 OVC025
FM312000 01009KT P6SM SCT020 BKN050
FM010000 VRB03KT P6SM FEW250

Example: see airport list